Time;durP1;ratioP1;P1;durP2;ratioP2;P2;SDS_P1;SDS_P2;PMS_P1;PMS_P2;Temp;Humidity;BMP_temperature;BMP_pressure;BME280_temperature;BME280_humidity;BME280_pressure;Samples;Min_cycle;Max_cycle;Signal;HPM_P1;HPM_P2
2022/05/06 00:02:43;;;;;;;;;;;;;;;;;;5069074;28;19916;-68
2022/05/06 00:05:30;;;;;;;;;;;;;;;;;;5087019;28;20375;-68
2022/05/06 00:08:16;;;;;;;;;;;;;;;;;;5090688;28;19917;-68
2022/05/06 00:11:01;;;;;;;;;;;;;;;;;;5081741;28;19913;-67
2022/05/06 00:13:46;;;;;;;;;;;;;;;;;;5056867;28;20353;-71
2022/05/06 00:16:31;;;;;;;;;;;;;;;;;;5096075;27;19920;-63
2022/05/06 00:19:16;;;;;;;;;;;;;;;;;;5087507;28;19912;-63
2022/05/06 00:22:01;;;;;;;;;;;;;;;;;;5060819;28;19912;-62
2022/05/06 00:24:47;;;;;;;;;;;;;;;;;;5067724;28;19971;-61
2022/05/06 00:27:32;;;;;;;;;;;;;;;;;;5067437;28;20280;-61
2022/05/06 00:30:17;;;;;;;;;;;;;;;;;;5081401;28;19913;-63
2022/05/06 00:33:02;;;;;;;;;;;;;;;;;;5059780;28;20383;-68
2022/05/06 00:35:47;;;;;;;;;;;;;;;;;;5066994;28;19959;-70
2022/05/06 00:38:32;;;;;;;;;;;;;;;;;;5080310;28;19967;-69
2022/05/06 00:41:18;;;;;;;;;;;;;;;;;;5055700;28;19912;-68
2022/05/06 00:44:03;;;;;;;;;;;;;;;;;;5081972;28;19913;-70
2022/05/06 00:46:48;;;;;;;;;;;;;;;;;;5087531;28;19912;-67
2022/05/06 00:49:33;;;;;;;;;;;;;;;;;;5067263;28;19961;-68
2022/05/06 00:52:18;;;;;;;;;;;;;;;;;;5050973;28;20437;-63
2022/05/06 00:55:03;;;;;;;;;;;;;;;;;;5094441;28;19968;-71
2022/05/06 00:57:49;;;;;;;;;;;;;;;;;;5066357;28;20398;-72
2022/05/06 01:00:34;;;;;;;;;;;;;;;;;;5074974;28;19967;-72
2022/05/06 01:03:19;;;;;;;;;;;;;;;;;;5063021;28;19932;-74
2022/05/06 01:06:05;;;;;;;;;;;;;;;;;;5075904;28;19924;-71
2022/05/06 01:08:50;;;;;;;;;;;;;;;;;;5065339;28;20000;-61
2022/05/06 01:11:35;;;;;;;;;;;;;;;;;;5093385;28;19960;-62
2022/05/06 01:14:20;;;;;;;;;;;;;;;;;;5090420;28;19924;-63
2022/05/06 01:17:08;;;;;;;;;;;;;;;;;;5091633;28;19916;-63
2022/05/06 01:19:53;;;;;;;;;;;;;;;;;;5094754;28;20377;-61
2022/05/06 01:22:38;;;;;;;;;;;;;;;;;;5083472;28;19963;-61
2022/05/06 01:25:23;;;;;;;;;;;;;;;;;;5060606;28;20380;-63
2022/05/06 01:28:08;;;;;;;;;;;;;;;;;;5067099;28;19974;-63
2022/05/06 01:31:03;;;;;;;;;;;;;;;;;;5063056;28;20283;-69
2022/05/06 01:33:54;;;;;;;;;;;;;;;;;;5091209;28;20376;-72
2022/05/06 01:36:39;;;;;;;;;;;;;;;;;;5058997;28;19921;-67
2022/05/06 01:39:24;;;;;;;;;;;;;;;;;;5096763;28;19923;-68
2022/05/06 01:42:12;;;;;;;;;;;;;;;;;;5070382;28;19925;-68
2022/05/06 01:44:57;;;;;;;;;;;;;;;;;;5071195;28;19919;-65
2022/05/06 01:47:42;;;;;;;;;;;;;;;;;;5098415;27;19918;-69
2022/05/06 01:50:27;;;;;;;;;;;;;;;;;;5054380;28;19999;-68
2022/05/06 01:53:14;;;;;;;;;;;;;;;;;;5069489;28;19916;-68
2022/05/06 01:55:59;;;;;;;;;;;;;;;;;;5070200;28;19921;-68
2022/05/06 01:58:44;;;;;;;;;;;;;;;;;;5092013;28;20007;-67
2022/05/06 02:01:32;;;;;;;;;;;;;;;;;;5096665;28;19947;-68
2022/05/06 02:07:21;;;;;;;;;;;;;;;;;;5097069;28;19912;-74
2022/05/06 02:10:07;;;;;;;;;;;;;;;;;;5055346;28;19979;-74
2022/05/06 02:12:52;;;;;;;;;;;;;;;;;;5090811;28;20406;-71
2022/05/06 02:15:38;;;;;;;;;;;;;;;;;;5048568;28;19921;-71
2022/05/06 02:18:23;;;;;;;;;;;;;;;;;;5091964;28;19913;-70
2022/05/06 02:21:08;;;;;;;;;;;;;;;;;;5069127;28;20370;-72
2022/05/06 02:23:53;;;;;;;;;;;;;;;;;;5049581;28;21245;-68
2022/05/06 02:26:38;;;;;;;;;;;;;;;;;;5063405;28;20011;-63
2022/05/06 02:29:24;;;;;;;;;;;;;;;;;;5081576;28;20013;-63
2022/05/06 02:35:13;;;;;;;;;;;;;;;;;;5065619;28;19921;-64
2022/05/06 02:37:58;;;;;;;;;;;;;;;;;;5069111;28;19916;-64
2022/05/06 02:40:43;;;;;;;;;;;;;;;;;;5068598;28;19913;-70
2022/05/06 02:43:28;;;;;;;;;;;;;;;;;;5087203;28;19948;-63
2022/05/06 02:46:13;;;;;;;;;;;;;;;;;;5100485;28;19962;-62
2022/05/06 02:48:58;;;;;;;;;;;;;;;;;;5056432;28;20450;-63
2022/05/06 02:51:43;;;;;;;;;;;;;;;;;;5095481;28;19912;-65
2022/05/06 02:54:30;;;;;;;;;;;;;;;;;;5072264;28;19913;-64
2022/05/06 02:57:15;;;;;;;;;;;;;;;;;;5096366;28;19927;-62
2022/05/06 03:00:01;;;;;;;;;;;;;;;;;;5094284;28;20388;-62
2022/05/06 03:02:46;;;;;;;;;;;;;;;;;;5097598;28;19982;-62
2022/05/06 03:05:32;;;;;;;;;;;;;;;;;;5067674;28;19916;-63
2022/05/06 03:08:17;;;;;;;;;;;;;;;;;;5069103;28;19924;-64
2022/05/06 03:11:02;;;;;;;;;;;;;;;;;;5095107;28;19916;-63
2022/05/06 03:13:47;;;;;;;;;;;;;;;;;;5081724;28;19965;-64
2022/05/06 03:16:32;;;;;;;;;;;;;;;;;;5065052;28;19920;-67
2022/05/06 03:19:18;;;;;;;;;;;;;;;;;;5098158;28;19919;-71
2022/05/06 03:22:03;;;;;;;;;;;;;;;;;;5093225;28;19921;-68
2022/05/06 03:24:48;;;;;;;;;;;;;;;;;;5072236;28;19912;-68
2022/05/06 03:30:39;;;;;;;;;;;;;;;;;;5067952;28;19912;-66
2022/05/06 03:33:28;;;;;;;;;;;;;;;;;;5091867;28;19963;-67
2022/05/06 03:36:13;;;;;;;;;;;;;;;;;;5068101;28;19921;-66
2022/05/06 03:38:58;;;;;;;;;;;;;;;;;;5091850;28;20379;-62
2022/05/06 03:41:43;;;;;;;;;;;;;;;;;;5067069;28;20283;-64
2022/05/06 03:44:28;;;;;;;;;;;;;;;;;;5057517;28;19916;-60
2022/05/06 03:47:14;;;;;;;;;;;;;;;;;;5066252;28;19966;-61
2022/05/06 03:53:03;;;;;;;;;;;;;;;;;;5064317;28;19912;-62
2022/05/06 03:55:48;;;;;;;;;;;;;;;;;;5092983;28;19928;-63
2022/05/06 03:58:33;;;;;;;;;;;;;;;;;;5067033;28;19909;-63
2022/05/06 04:01:19;;;;;;;;;;;;;;;;;;5094656;28;19970;-62
2022/05/06 04:04:04;;;;;;;;;;;;;;;;;;5068806;28;19963;-66
2022/05/06 04:06:49;;;;;;;;;;;;;;;;;;5087751;28;19974;-62
2022/05/06 04:09:35;;;;;;;;;;;;;;;;;;5065424;28;19920;-64
2022/05/06 04:12:21;;;;;;;;;;;;;;;;;;5066228;28;19924;-64
2022/05/06 04:15:06;;;;;;;;;;;;;;;;;;5084473;28;20398;-77
2022/05/06 04:17:53;;;;;;;;;;;;;;;;;;5065971;28;20197;-73
2022/05/06 04:23:42;;;;;;;;;;;;;;;;;;5091997;28;19925;-73
2022/05/06 04:26:27;;;;;;;;;;;;;;;;;;5080154;28;19912;-74
2022/05/06 04:29:12;;;;;;;;;;;;;;;;;;5054078;28;19913;-72
2022/05/06 04:31:58;;;;;;;;;;;;;;;;;;5082447;28;20387;-67
2022/05/06 04:34:43;;;;;;;;;;;;;;;;;;5092632;28;19912;-63
2022/05/06 04:37:28;;;;;;;;;;;;;;;;;;5067697;28;20373;-63
2022/05/06 04:40:13;;;;;;;;;;;;;;;;;;5053263;28;19912;-63
2022/05/06 04:43:00;;;;;;;;;;;;;;;;;;5095000;28;20007;-63
2022/05/06 04:45:45;;;;;;;;;;;;;;;;;;5066742;28;19919;-64
2022/05/06 04:48:31;;;;;;;;;;;;;;;;;;5082556;28;20326;-69
2022/05/06 04:51:16;;;;;;;;;;;;;;;;;;5077402;28;19913;-64
2022/05/06 04:54:01;;;;;;;;;;;;;;;;;;5093094;28;19917;-73
2022/05/06 04:56:46;;;;;;;;;;;;;;;;;;5063100;28;20454;-71
2022/05/06 04:59:31;;;;;;;;;;;;;;;;;;5079560;28;19951;-71
2022/05/06 05:02:16;;;;;;;;;;;;;;;;;;5085737;28;20037;-72
2022/05/06 05:05:03;;;;;;;;;;;;;;;;;;5079916;28;20287;-70
2022/05/06 05:07:48;;;;;;;;;;;;;;;;;;5096180;28;19908;-68
2022/05/06 05:10:33;;;;;;;;;;;;;;;;;;5092517;28;19939;-66
2022/05/06 05:13:18;;;;;;;;;;;;;;;;;;5057618;28;19928;-64
2022/05/06 05:16:03;;;;;;;;;;;;;;;;;;5071617;28;19927;-65
2022/05/06 05:18:49;;;;;;;;;;;;;;;;;;5067356;28;20007;-64
2022/05/06 05:21:34;;;;;;;;;;;;;;;;;;5070549;28;20300;-65
2022/05/06 05:24:19;;;;;;;;;;;;;;;;;;5082751;28;20356;-65
2022/05/06 05:27:04;;;;;;;;;;;;;;;;;;5096308;28;19912;-63
2022/05/06 05:29:49;;;;;;;;;;;;;;;;;;5076621;28;19913;-63
2022/05/06 05:32:34;;;;;;;;;;;;;;;;;;5095053;28;19920;-65
2022/05/06 05:35:20;;;;;;;;;;;;;;;;;;5058297;28;19920;-64
2022/05/06 05:38:05;;;;;;;;;;;;;;;;;;5091479;27;20000;-65
2022/05/06 05:40:50;;;;;;;;;;;;;;;;;;5066738;28;20045;-65
2022/05/06 05:50:02;;;;;;;;;;;;;;;;;;5058359;28;19921;-64
2022/05/06 05:52:48;;;;;;;;;;;;;;;;;;5093492;28;19915;-64
2022/05/06 05:55:33;;;;;;;;;;;;;;;;;;5087799;28;19983;-68
2022/05/06 05:58:18;;;;;;;;;;;;;;;;;;5064160;28;19920;-62
2022/05/06 06:01:03;;;;;;;;;;;;;;;;;;5078699;28;20544;-63
2022/05/06 06:03:48;;;;;;;;;;;;;;;;;;5065351;28;19952;-68
2022/05/06 06:06:33;;;;;;;;;;;;;;;;;;5061335;28;19969;-71
2022/05/06 06:09:22;;;;;;;;;;;;;;;;;;5054029;28;19920;-71
2022/05/06 06:12:07;;;;;;;;;;;;;;;;;;5060230;28;20608;-71
2022/05/06 06:14:55;;;;;;;;;;;;;;;;;;5060995;28;19928;-75
2022/05/06 06:17:40;;;;;;;;;;;;;;;;;;5068006;28;19916;-72
2022/05/06 06:20:26;;;;;;;;;;;;;;;;;;5061518;28;19919;-73
2022/05/06 06:23:11;;;;;;;;;;;;;;;;;;5089963;27;19935;-64
2022/05/06 06:25:56;;;;;;;;;;;;;;;;;;5066254;28;19919;-63
2022/05/06 06:28:41;;;;;;;;;;;;;;;;;;5068828;28;19913;-63
2022/05/06 06:31:30;;;;;;;;;;;;;;;;;;5064989;28;19912;-63
2022/05/06 06:34:15;;;;;;;;;;;;;;;;;;5063910;28;19912;-64
2022/05/06 06:37:00;;;;;;;;;;;;;;;;;;5062474;28;20482;-63
2022/05/06 06:39:46;;;;;;;;;;;;;;;;;;5063265;28;20387;-71
2022/05/06 06:42:31;;;;;;;;;;;;;;;;;;5068412;28;19912;-65
2022/05/06 06:45:16;;;;;;;;;;;;;;;;;;5066001;28;20383;-66
2022/05/06 06:48:01;;;;;;;;;;;;;;;;;;5062962;28;19996;-66
2022/05/06 06:50:46;;;;;;;;;;;;;;;;;;5062381;28;19919;-66
2022/05/06 06:53:31;;;;;;;;;;;;;;;;;;5063195;28;20402;-66
2022/05/06 06:56:16;;;;;;;;;;;;;;;;;;5088795;27;19921;-64
2022/05/06 06:59:01;;;;;;;;;;;;;;;;;;5091294;27;20565;-64
2022/05/06 07:01:47;;;;;;;;;;;;;;;;;;5066254;28;19916;-65
2022/05/06 07:04:32;;;;;;;;;;;;;;;;;;5080145;28;19935;-66
2022/05/06 07:13:25;;;;;;;;;;;;;;;;;;5081044;27;19974;-71
2022/05/06 07:16:10;;;;;;;;;;;;;;;;;;5059641;28;19936;-75
2022/05/06 07:18:55;;;;;;;;;;;;;;;;;;5087220;28;19912;-65
2022/05/06 07:21:41;;;;;;;;;;;;;;;;;;5068968;28;20279;-64
2022/05/06 07:24:26;;;;;;;;;;;;;;;;;;5094479;27;19996;-63
2022/05/06 07:27:11;;;;;;;;;;;;;;;;;;5062484;28;19912;-63
2022/05/06 07:29:56;;;;;;;;;;;;;;;;;;5081667;28;20000;-64
2022/05/06 07:32:41;;;;;;;;;;;;;;;;;;5089428;28;19912;-63
2022/05/06 07:35:26;;;;;;;;;;;;;;;;;;5087513;27;20014;-70
2022/05/06 07:38:12;;;;;;;;;;;;;;;;;;5063024;28;19916;-71
2022/05/06 07:40:58;;;;;;;;;;;;;;;;;;5079985;27;20366;-75
2022/05/06 07:43:43;;;;;;;;;;;;;;;;;;5086909;28;20143;-74
2022/05/06 07:46:28;;;;;;;;;;;;;;;;;;5084180;28;19917;-71
2022/05/06 07:49:14;;;;;;;;;;;;;;;;;;5061938;28;19935;-73
2022/05/06 07:51:59;;;;;;;;;;;;;;;;;;5090152;27;19919;-72
2022/05/06 07:54:44;;;;;;;;;;;;;;;;;;5084226;27;19924;-71
2022/05/06 07:57:29;;;;;;;;;;;;;;;;;;5062831;28;19923;-67
2022/05/06 08:00:15;;;;;;;;;;;;;;;;;;5061914;28;20416;-67
2022/05/06 08:06:04;;;;;;;;;;;;;;;;;;5084450;28;19920;-68
2022/05/06 08:08:49;;;;;;;;;;;;;;;;;;5058899;28;19913;-71
2022/05/06 08:11:36;;;;;;;;;;;;;;;;;;5078374;28;20392;-66
2022/05/06 08:14:21;;;;;;;;;;;;;;;;;;5061373;28;20441;-71
2022/05/06 08:17:06;;;;;;;;;;;;;;;;;;5087204;28;19942;-72
2022/05/06 08:19:51;;;;;;;;;;;;;;;;;;5062883;28;20005;-70
2022/05/06 08:22:37;;;;;;;;;;;;;;;;;;5088048;28;19943;-73
2022/05/06 08:25:22;;;;;;;;;;;;;;;;;;5062089;28;19916;-69
2022/05/06 08:28:07;;;;;;;;;;;;;;;;;;5088146;28;19913;-70
2022/05/06 08:30:52;;;;;;;;;;;;;;;;;;5060715;28;19918;-69
2022/05/06 08:33:37;;;;;;;;;;;;;;;;;;5086574;28;19919;-72
2022/05/06 08:36:23;;;;;;;;;;;;;;;;;;5081730;28;19921;-73
2022/05/06 08:39:08;;;;;;;;;;;;;;;;;;5065156;28;19955;-71
2022/05/06 08:41:54;;;;;;;;;;;;;;;;;;5062507;28;19923;-71
2022/05/06 08:50:50;;;;;;;;;;;;;;;;;;5085699;27;19916;-69
2022/05/06 08:53:37;;;;;;;;;;;;;;;;;;5086529;28;19913;-70
2022/05/06 08:56:22;;;;;;;;;;;;;;;;;;5066000;28;19924;-73
2022/05/06 08:59:07;;;;;;;;;;;;;;;;;;5062348;28;20444;-70
2022/05/06 09:01:53;;;;;;;;;;;;;;;;;;5062863;28;19923;-72
2022/05/06 09:04:38;;;;;;;;;;;;;;;;;;5087376;28;19978;-70
2022/05/06 09:07:25;;;;;;;;;;;;;;;;;;5053933;28;19913;-70
2022/05/06 09:10:10;;;;;;;;;;;;;;;;;;5075126;28;19966;-70
2022/05/06 09:12:56;;;;;;;;;;;;;;;;;;5087144;28;19912;-67
2022/05/06 09:18:45;;;;;;;;;;;;;;;;;;5047593;28;19913;-69
2022/05/06 09:21:30;;;;;;;;;;;;;;;;;;5044601;28;20027;-69
2022/05/06 09:24:15;;;;;;;;;;;;;;;;;;5042411;28;19967;-69
2022/05/06 09:27:00;;;;;;;;;;;;;;;;;;5061451;28;20015;-69
2022/05/06 09:29:46;;;;;;;;;;;;;;;;;;5041291;28;19923;-70
2022/05/06 09:32:31;;;;;;;;;;;;;;;;;;5067161;28;20346;-67
2022/05/06 09:35:18;;;;;;;;;;;;;;;;;;5047433;28;19974;-64
2022/05/06 09:38:04;;;;;;;;;;;;;;;;;;5055933;28;19913;-64
2022/05/06 09:40:49;;;;;;;;;;;;;;;;;;5046418;28;19913;-65
2022/05/06 09:43:34;;;;;;;;;;;;;;;;;;5056164;28;19920;-71
2022/05/06 09:46:20;;;;;;;;;;;;;;;;;;5061406;28;19912;-71
2022/05/06 09:49:05;;;;;;;;;;;;;;;;;;5056935;28;19952;-70
2022/05/06 09:51:50;;;;;;;;;;;;;;;;;;5046296;28;19939;-70
2022/05/06 09:54:36;;;;;;;;;;;;;;;;;;5048389;28;19913;-71
2022/05/06 09:57:21;;;;;;;;;;;;;;;;;;5040468;28;19966;-67
2022/05/06 10:00:06;;;;;;;;;;;;;;;;;;5062025;28;19912;-68
2022/05/06 10:02:51;;;;;;;;;;;;;;;;;;5053531;28;19919;-65
2022/05/06 10:05:36;;;;;;;;;;;;;;;;;;5045790;28;19913;-72
2022/05/06 10:08:21;;;;;;;;;;;;;;;;;;5061623;28;19989;-72
2022/05/06 10:11:12;;;;;;;;;;;;;;;;;;5045998;28;20421;-69
2022/05/06 10:13:58;;;;;;;;;;;;;;;;;;5046493;28;20470;-71
2022/05/06 10:16:43;;;;;;;;;;;;;;;;;;5085085;28;19966;-71
2022/05/06 10:19:28;;;;;;;;;;;;;;;;;;5096521;28;19927;-72
2022/05/06 10:22:13;;;;;;;;;;;;;;;;;;5068602;28;19928;-68
2022/05/06 10:25:00;;;;;;;;;;;;;;;;;;5083535;28;19912;-69
2022/05/06 10:33:53;;;;;;;;;;;;;;;;;;5088664;28;20327;-68
2022/05/06 10:36:38;;;;;;;;;;;;;;;;;;5087870;28;19964;-66
2022/05/06 10:39:24;;;;;;;;;;;;;;;;;;5055810;28;19912;-67
2022/05/06 10:42:09;;;;;;;;;;;;;;;;;;5087440;28;19912;-66
2022/05/06 10:44:54;;;;;;;;;;;;;;;;;;5088041;28;20368;-66
2022/05/06 10:47:40;;;;;;;;;;;;;;;;;;5067594;28;19974;-67
2022/05/06 10:50:29;;;;;;;;;;;;;;;;;;5083267;28;19916;-66
2022/05/06 10:53:14;;;;;;;;;;;;;;;;;;5087666;28;19922;-69
2022/05/06 10:55:59;;;;;;;;;;;;;;;;;;5068992;28;20387;-67
2022/05/06 10:58:44;;;;;;;;;;;;;;;;;;5085291;28;19916;-65
2022/05/06 11:01:35;;;;;;;;;;;;;;;;;;5058511;28;20202;-67
2022/05/06 11:04:20;;;;;;;;;;;;;;;;;;5073851;28;19912;-66
2022/05/06 11:07:05;;;;;;;;;;;;;;;;;;5059671;28;20338;-64
2022/05/06 11:09:54;;;;;;;;;;;;;;;;;;5060536;28;19991;-67
2022/05/06 11:12:39;;;;;;;;;;;;;;;;;;5095735;27;19981;-65
2022/05/06 11:15:24;;;;;;;;;;;;;;;;;;5041316;28;20272;-65
2022/05/06 11:18:09;;;;;;;;;;;;;;;;;;5065641;28;19919;-71
2022/05/06 11:20:54;;;;;;;;;;;;;;;;;;5052141;28;20385;-67
2022/05/06 11:23:39;;;;;;;;;;;;;;;;;;5051158;28;20348;-65
2022/05/06 11:26:25;;;;;;;;;;;;;;;;;;5039608;28;20020;-66
2022/05/06 11:29:10;;;;;;;;;;;;;;;;;;5063434;28;19912;-66
2022/05/06 11:31:55;;;;;;;;;;;;;;;;;;5044609;28;19952;-65
2022/05/06 11:34:40;;;;;;;;;;;;;;;;;;5043568;28;19913;-70
2022/05/06 11:37:25;;;;;;;;;;;;;;;;;;5041453;28;20310;-67
2022/05/06 11:40:32;;;;;;;;;;;;;;;;;;5043840;28;20413;-63
2022/05/06 11:43:21;;;;;;;;;;;;;;;;;;5052335;28;20597;-63
2022/05/06 11:49:10;;;;;;;;;;;;;;;;;;5061097;28;19927;-62
2022/05/06 11:51:56;;;;;;;;;;;;;;;;;;5055698;28;19923;-69
2022/05/06 11:54:41;;;;;;;;;;;;;;;;;;5044476;28;20003;-63
2022/05/06 11:57:27;;;;;;;;;;;;;;;;;;5041639;28;19956;-70
2022/05/06 12:00:12;;;;;;;;;;;;;;;;;;5065402;28;19916;-71
2022/05/06 12:02:58;;;;;;;;;;;;;;;;;;5059560;28;19975;-73
2022/05/06 12:05:43;;;;;;;;;;;;;;;;;;5065156;28;19917;-72
2022/05/06 12:08:28;;;;;;;;;;;;;;;;;;5066947;28;19917;-71
2022/05/06 12:11:13;;;;;;;;;;;;;;;;;;5062371;28;19913;-68
2022/05/06 12:13:58;;;;;;;;;;;;;;;;;;5062555;28;20384;-67
2022/05/06 12:16:43;;;;;;;;;;;;;;;;;;5051379;28;20023;-68
2022/05/06 12:19:28;;;;;;;;;;;;;;;;;;5059538;28;20498;-66
2022/05/06 12:22:14;;;;;;;;;;;;;;;;;;5042853;28;19920;-68
2022/05/06 12:24:59;;;;;;;;;;;;;;;;;;5072694;28;19974;-66
2022/05/06 12:27:44;;;;;;;;;;;;;;;;;;5064346;28;19995;-68
2022/05/06 12:30:29;;;;;;;;;;;;;;;;;;5044628;28;20069;-68
2022/05/06 12:33:14;;;;;;;;;;;;;;;;;;5037640;28;20120;-65
2022/05/06 12:35:59;;;;;;;;;;;;;;;;;;5061979;28;20362;-68
2022/05/06 12:38:44;;;;;;;;;;;;;;;;;;5061417;28;19917;-65
2022/05/06 12:41:29;;;;;;;;;;;;;;;;;;5055222;28;20399;-65
2022/05/06 12:44:16;;;;;;;;;;;;;;;;;;5066432;28;19921;-68
2022/05/06 12:47:01;;;;;;;;;;;;;;;;;;5057903;28;20275;-68
2022/05/06 12:49:46;;;;;;;;;;;;;;;;;;5061396;28;19921;-67
2022/05/06 12:52:32;;;;;;;;;;;;;;;;;;5042254;28;19917;-65
2022/05/06 12:55:17;;;;;;;;;;;;;;;;;;5060078;28;19933;-65
2022/05/06 12:58:02;;;;;;;;;;;;;;;;;;5040876;28;20367;-69
2022/05/06 13:00:47;;;;;;;;;;;;;;;;;;5049033;28;19917;-68
2022/05/06 13:03:33;;;;;;;;;;;;;;;;;;5066336;28;20444;-64
2022/05/06 13:06:18;;;;;;;;;;;;;;;;;;5070349;28;19913;-70
2022/05/06 13:09:03;;;;;;;;;;;;;;;;;;5067544;28;20382;-65
2022/05/06 13:11:48;;;;;;;;;;;;;;;;;;5044459;28;20015;-67
2022/05/06 13:14:33;;;;;;;;;;;;;;;;;;5043385;28;19952;-65
2022/05/06 13:17:18;;;;;;;;;;;;;;;;;;5063211;28;19921;-65
2022/05/06 13:20:03;;;;;;;;;;;;;;;;;;5039518;28;19952;-64
2022/05/06 13:22:49;;;;;;;;;;;;;;;;;;5069796;28;19919;-63
2022/05/06 13:25:34;;;;;;;;;;;;;;;;;;5044963;28;19928;-63
2022/05/06 13:28:19;;;;;;;;;;;;;;;;;;5063472;28;19913;-63
2022/05/06 13:31:04;;;;;;;;;;;;;;;;;;5073937;28;20352;-63
2022/05/06 13:33:49;;;;;;;;;;;;;;;;;;5048825;28;19962;-66
2022/05/06 13:36:34;;;;;;;;;;;;;;;;;;5071968;28;20296;-66
2022/05/06 13:39:19;;;;;;;;;;;;;;;;;;5046490;28;19913;-62
2022/05/06 13:42:05;;;;;;;;;;;;;;;;;;5067278;28;19923;-64
2022/05/06 13:44:50;;;;;;;;;;;;;;;;;;5065025;28;19913;-65
2022/05/06 13:47:35;;;;;;;;;;;;;;;;;;5050603;28;20346;-68
2022/05/06 13:50:20;;;;;;;;;;;;;;;;;;5045546;28;19917;-68
2022/05/06 13:53:06;;;;;;;;;;;;;;;;;;5044122;28;20299;-69
2022/05/06 13:59:05;;;;;;;;;;;;;;;;;;5071391;28;19960;-67
2022/05/06 14:01:50;;;;;;;;;;;;;;;;;;5046386;28;19919;-64
2022/05/06 14:04:35;;;;;;;;;;;;;;;;;;5039852;28;19917;-67
2022/05/06 14:07:20;;;;;;;;;;;;;;;;;;5067043;28;20023;-68
2022/05/06 14:10:05;;;;;;;;;;;;;;;;;;5068080;28;19913;-73
2022/05/06 14:12:51;;;;;;;;;;;;;;;;;;5070955;28;19920;-68
2022/05/06 14:15:36;;;;;;;;;;;;;;;;;;5064702;28;19974;-68
2022/05/06 14:18:21;;;;;;;;;;;;;;;;;;5066894;28;20552;-70
2022/05/06 14:21:06;;;;;;;;;;;;;;;;;;5064161;28;19922;-70
2022/05/06 14:23:51;;;;;;;;;;;;;;;;;;5086822;28;19912;-71
2022/05/06 14:26:36;;;;;;;;;;;;;;;;;;5091559;28;20176;-72
2022/05/06 14:29:22;;;;;;;;;;;;;;;;;;5082914;28;20288;-69
2022/05/06 14:32:08;;;;;;;;;;;;;;;;;;5078001;28;20188;-68
2022/05/06 14:35:15;;;;;;;;;;;;;;;;;;5086457;28;19944;-73
2022/05/06 14:37:59;;;;;;;;;;;;;;;;;;5092904;27;19938;-69
2022/05/06 14:40:45;;;;;;;;;;;;;;;;;;5065256;28;19951;-65
2022/05/06 14:43:30;;;;;;;;;;;;;;;;;;5079889;28;19920;-65
2022/05/06 14:46:15;;;;;;;;;;;;;;;;;;5093463;27;19931;-63
2022/05/06 14:49:00;;;;;;;;;;;;;;;;;;5088414;28;19970;-66
2022/05/06 14:51:45;;;;;;;;;;;;;;;;;;5090527;28;20007;-69
2022/05/06 14:54:30;;;;;;;;;;;;;;;;;;5077034;28;20283;-67
2022/05/06 14:57:16;;;;;;;;;;;;;;;;;;5078445;28;20177;-68
2022/05/06 15:00:01;;;;;;;;;;;;;;;;;;5086672;28;20403;-67
2022/05/06 15:02:46;;;;;;;;;;;;;;;;;;5065128;28;19920;-65
2022/05/06 15:05:31;;;;;;;;;;;;;;;;;;5085811;28;19990;-66
2022/05/06 15:08:16;;;;;;;;;;;;;;;;;;5092227;27;19973;-67
2022/05/06 15:11:01;;;;;;;;;;;;;;;;;;5060959;28;20287;-66
2022/05/06 15:13:47;;;;;;;;;;;;;;;;;;5065640;28;20375;-67
2022/05/06 15:16:32;;;;;;;;;;;;;;;;;;5052874;28;19936;-63
2022/05/06 15:19:23;;;;;;;;;;;;;;;;;;5092913;27;19952;-69
2022/05/06 15:22:09;;;;;;;;;;;;;;;;;;5069776;28;19939;-71
2022/05/06 15:24:54;;;;;;;;;;;;;;;;;;5093719;28;19962;-72
2022/05/06 15:27:40;;;;;;;;;;;;;;;;;;5067226;28;19919;-71
2022/05/06 15:30:25;;;;;;;;;;;;;;;;;;5067235;28;20359;-69
2022/05/06 15:33:10;;;;;;;;;;;;;;;;;;5062151;28;19912;-68
2022/05/06 15:35:58;;;;;;;;;;;;;;;;;;5067500;28;19931;-70
2022/05/06 15:38:43;;;;;;;;;;;;;;;;;;5057816;28;20038;-66
2022/05/06 15:41:28;;;;;;;;;;;;;;;;;;5054473;28;19919;-64
2022/05/06 15:44:13;;;;;;;;;;;;;;;;;;5067820;28;20015;-65
2022/05/06 15:46:59;;;;;;;;;;;;;;;;;;5089114;27;19956;-67
2022/05/06 15:49:44;;;;;;;;;;;;;;;;;;5064854;28;19916;-65
2022/05/06 15:52:29;;;;;;;;;;;;;;;;;;5057390;28;19960;-65
2022/05/06 15:55:14;;;;;;;;;;;;;;;;;;5086797;27;19998;-70
2022/05/06 15:57:59;;;;;;;;;;;;;;;;;;5066689;28;20295;-67
2022/05/06 16:00:47;;;;;;;;;;;;;;;;;;5047944;28;20022;-66
2022/05/06 16:03:32;;;;;;;;;;;;;;;;;;5076232;28;19938;-66
2022/05/06 16:06:17;;;;;;;;;;;;;;;;;;5058590;28;19916;-66
2022/05/06 16:09:02;;;;;;;;;;;;;;;;;;5095204;28;19948;-69
2022/05/06 16:11:47;;;;;;;;;;;;;;;;;;5065607;28;19908;-63
2022/05/06 16:17:37;;;;;;;;;;;;;;;;;;5071546;28;19920;-64
2022/05/06 16:20:22;;;;;;;;;;;;;;;;;;5050526;28;19913;-64
2022/05/06 16:23:07;;;;;;;;;;;;;;;;;;5069701;28;19919;-65
2022/05/06 16:25:54;;;;;;;;;;;;;;;;;;5079581;28;19924;-64
2022/05/06 16:28:40;;;;;;;;;;;;;;;;;;5094911;28;19923;-62
2022/05/06 16:31:25;;;;;;;;;;;;;;;;;;5046884;28;19924;-69
2022/05/06 16:37:21;;;;;;;;;;;;;;;;;;5067213;28;19930;-72
2022/05/06 16:40:07;;;;;;;;;;;;;;;;;;5067971;28;19913;-70
2022/05/06 16:42:53;;;;;;;;;;;;;;;;;;5094135;28;19956;-71
2022/05/06 16:45:38;;;;;;;;;;;;;;;;;;5068747;28;20359;-70
2022/05/06 16:48:23;;;;;;;;;;;;;;;;;;5053707;28;19999;-68
2022/05/06 16:51:08;;;;;;;;;;;;;;;;;;5055764;28;19912;-62
2022/05/06 16:53:54;;;;;;;;;;;;;;;;;;5064198;28;20363;-64
2022/05/06 16:56:39;;;;;;;;;;;;;;;;;;5064778;28;19927;-66
2022/05/06 16:59:24;;;;;;;;;;;;;;;;;;5085673;28;19964;-64
2022/05/06 17:02:09;;;;;;;;;;;;;;;;;;5066667;28;19928;-63
2022/05/06 17:04:54;;;;;;;;;;;;;;;;;;5098573;28;20341;-65
2022/05/06 17:07:39;;;;;;;;;;;;;;;;;;5070038;28;19912;-69
2022/05/06 17:10:25;;;;;;;;;;;;;;;;;;5097651;28;19921;-69
2022/05/06 17:13:10;;;;;;;;;;;;;;;;;;5065898;28;19913;-71
2022/05/06 17:15:55;;;;;;;;;;;;;;;;;;5047394;28;20011;-70
2022/05/06 17:18:42;;;;;;;;;;;;;;;;;;5035321;28;20340;-71
2022/05/06 17:21:32;;;;;;;;;;;;;;;;;;5037643;28;20051;-71
2022/05/06 17:24:20;;;;;;;;;;;;;;;;;;5050744;28;19917;-64
2022/05/06 17:27:05;;;;;;;;;;;;;;;;;;5051167;28;19928;-69
2022/05/06 17:29:50;;;;;;;;;;;;;;;;;;5030276;28;19913;-68
2022/05/06 17:32:35;;;;;;;;;;;;;;;;;;5036475;28;20375;-68
2022/05/06 17:35:21;;;;;;;;;;;;;;;;;;5036462;28;19917;-67
2022/05/06 17:38:06;;;;;;;;;;;;;;;;;;5053300;28;19913;-67
2022/05/06 17:40:51;;;;;;;;;;;;;;;;;;5033320;28;19968;-68
2022/05/06 17:43:37;;;;;;;;;;;;;;;;;;5035942;28;19988;-68
2022/05/06 17:46:22;;;;;;;;;;;;;;;;;;5044320;28;19966;-71
2022/05/06 17:49:07;;;;;;;;;;;;;;;;;;5035090;28;20356;-70
2022/05/06 17:51:53;;;;;;;;;;;;;;;;;;5033053;28;19920;-70
2022/05/06 17:54:38;;;;;;;;;;;;;;;;;;5027966;28;20019;-71
2022/05/06 17:57:24;;;;;;;;;;;;;;;;;;5050261;28;19920;-72
2022/05/06 18:03:13;;;;;;;;;;;;;;;;;;5048791;28;19932;-69
2022/05/06 18:05:58;;;;;;;;;;;;;;;;;;5043562;28;20004;-67
2022/05/06 18:08:43;;;;;;;;;;;;;;;;;;5049656;28;19912;-67
2022/05/06 18:11:28;;;;;;;;;;;;;;;;;;5035156;28;20421;-65
2022/05/06 18:14:14;;;;;;;;;;;;;;;;;;5067093;28;19989;-66
2022/05/06 18:16:59;;;;;;;;;;;;;;;;;;5096758;27;20376;-67
2022/05/06 18:19:44;;;;;;;;;;;;;;;;;;5067094;28;19927;-63
2022/05/06 18:22:29;;;;;;;;;;;;;;;;;;5094036;28;19912;-61
2022/05/06 18:25:15;;;;;;;;;;;;;;;;;;5096472;28;19920;-65
2022/05/06 18:28:02;;;;;;;;;;;;;;;;;;5107882;27;19989;-64
2022/05/06 18:30:47;;;;;;;;;;;;;;;;;;5065336;28;19913;-63
2022/05/06 18:33:32;;;;;;;;;;;;;;;;;;5092210;28;19913;-63
2022/05/06 18:36:17;;;;;;;;;;;;;;;;;;5087486;28;19920;-62
2022/05/06 18:39:03;;;;;;;;;;;;;;;;;;5069724;28;19913;-68
2022/05/06 18:41:49;;;;;;;;;;;;;;;;;;5067138;28;19916;-70
2022/05/06 18:44:34;;;;;;;;;;;;;;;;;;5070315;28;19919;-69
2022/05/06 18:47:19;;;;;;;;;;;;;;;;;;5088390;28;20398;-70
2022/05/06 18:50:04;;;;;;;;;;;;;;;;;;5069612;28;19916;-71
2022/05/06 18:52:49;;;;;;;;;;;;;;;;;;5066057;28;20395;-73
2022/05/06 18:55:35;;;;;;;;;;;;;;;;;;5067343;28;19985;-73
2022/05/06 18:58:20;;;;;;;;;;;;;;;;;;5090995;27;19956;-63
2022/05/06 19:01:05;;;;;;;;;;;;;;;;;;5091388;28;20283;-68
2022/05/06 19:03:50;;;;;;;;;;;;;;;;;;5068590;28;19913;-68
2022/05/06 19:06:35;;;;;;;;;;;;;;;;;;5069251;28;20035;-68
2022/05/06 19:09:20;;;;;;;;;;;;;;;;;;5092798;28;19920;-70
2022/05/06 19:12:05;;;;;;;;;;;;;;;;;;5090607;28;19913;-71
2022/05/06 19:14:51;;;;;;;;;;;;;;;;;;5096391;28;19924;-72
2022/05/06 19:17:36;;;;;;;;;;;;;;;;;;5073095;28;20022;-69
2022/05/06 19:20:21;;;;;;;;;;;;;;;;;;5063986;28;19913;-67
2022/05/06 19:26:11;;;;;;;;;;;;;;;;;;5057065;28;19912;-67
2022/05/06 19:28:56;;;;;;;;;;;;;;;;;;5092135;28;19947;-67
2022/05/06 19:31:41;;;;;;;;;;;;;;;;;;5068701;28;19953;-67
2022/05/06 19:34:26;;;;;;;;;;;;;;;;;;5094862;28;20402;-71
2022/05/06 19:37:11;;;;;;;;;;;;;;;;;;5102546;27;19927;-65
2022/05/06 19:39:57;;;;;;;;;;;;;;;;;;5067850;28;19912;-65
2022/05/06 19:42:42;;;;;;;;;;;;;;;;;;5062896;28;19920;-64
2022/05/06 19:45:28;;;;;;;;;;;;;;;;;;5076760;28;19958;-65
2022/05/06 19:48:13;;;;;;;;;;;;;;;;;;5082312;28;20030;-66
2022/05/06 19:50:58;;;;;;;;;;;;;;;;;;5058073;28;20283;-63
2022/05/06 19:53:44;;;;;;;;;;;;;;;;;;5080267;28;19913;-63
2022/05/06 19:56:29;;;;;;;;;;;;;;;;;;5094801;28;20404;-71